Tuesday, February 20, 2018, 10:46 AM EST
Back to Local

KCEF, Chicopee Falls / Westover Air Force Base

Location: Chicopee, MA, United States Lat: 42.2
Local Time: 10:46 AM EST (15:46 GMT) Lon: -72.533
Time Zone: US/Eastern Elev: 246 ft

Show me the last for .
Show Decoded

2018-02-20 10:29 METAR KCEF 201529Z 19009KT 10SM BKN008 BKN015 BKN090 11/09 A3025 RMK AO2A SLP251
                 =
2018-02-20 09:56 METAR KCEF 201456Z 18009KT 10SM BKN007 BKN015 10/09 A3026 RMK AO2A SLP254
                 T00990088 50003 =
2018-02-20 09:53 METAR KCEF 201453Z 18007KT 4SM BR OVC007 10/09 A3026 RMK AO2A SLP254 =
2018-02-20 08:56 METAR KCEF 201356Z 19007KT 4SM BR BKN006 OVC010 09/09 A3027 RMK AO2A SLP258
                 T00890086 =
2018-02-20 07:56 METAR KCEF 201256Z 19007KT 3SM BR BKN006 OVC009 09/08 A3026 RMK AO2A SLP255
                 T00850084 =
2018-02-20 07:32 METAR KCEF 201232Z 17006KT 4SM BR BKN006 OVC009 08/08 A3025 RMK AO2A SLP251 =
2018-02-20 06:56 METAR KCEF 201156Z 18007KT 4SM BR BKN005 OVC009 08/08 A3025 RMK AO2A SLP251
                 60000 70019 T00830082 10083 20071 53009 =
2018-02-20 05:56 METAR KCEF 201056Z AUTO 18008KT 10SM OVC005 08/08 A3023 RMK AO2 SLP244 T00810080
                 =
2018-02-20 04:56 METAR KCEF 200956Z AUTO 18008KT 10SM OVC005 08/08 A3022 RMK AO2 SLP241 T00820081
                 =
2018-02-20 03:56 METAR KCEF 200856Z AUTO 18011KT 10SM OVC003 08/08 A3022 RMK AO2 SLP241 60000
                 T00800080 57013 =
2018-02-20 02:56 METAR KCEF 200756Z AUTO 18011KT 3SM BR OVC002 08/08 A3023 RMK AO2 SLP244
                 T00780078 =
2018-02-20 02:43 METAR KCEF 200743Z AUTO 18008KT 3SM R23/6000FT BR OVC002 08/08 A3024 RMK AO2 VIS
                 2 1/2 RWY05 SLP248 =
2018-02-20 02:40 METAR KCEF 200740Z AUTO 18008KT 2 1/2SM R23/5500FT BR OVC002 08/08 A3024 RMK AO2
                 VIS 1 1/2V2 1/2 SLP248 =
2018-02-20 02:37 METAR KCEF 200737Z AUTO 18009KT 2 1/4SM R23/5000FT BR OVC002 08/08 A3024 RMK AO2
                 VIS 1 3/8V2 1/4 SLP248 =
2018-02-20 02:31 METAR KCEF 200731Z AUTO 19009KT 1 1/2SM R23/4000FT BR OVC002 08/08 A3024 RMK AO2
                 SLP248 =
2018-02-20 02:18 METAR KCEF 200718Z AUTO 18010KT 1 1/8SM R23/3000FT BR OVC002 08/07 A3023 RMK AO2
                 SLP244 =
2018-02-20 02:07 METAR KCEF 200707Z AUTO 19010KT 3/4SM R23/2200V2600FT BR VV002 07/07 A3024 RMK
                 AO2 SLP248 =
2018-02-20 01:56 METAR KCEF 200656Z AUTO 19010KT 5/8SM R23/2000V2200FT BR VV002 07/07 A3024 RMK
                 AO2 RAE00 SLP248 P0000 T00730072 =
2018-02-20 01:29 METAR KCEF 200629Z AUTO 19009KT 3/4SM R23/2200V2400FT BR VV002 07/07 A3025 RMK
                 AO2 RAE00 SLP251 =
2018-02-20 01:14 METAR KCEF 200614Z AUTO 18008KT 1SM R23/2600V3500FT BR OVC002 07/07 A3025 RMK
                 AO2 RAE00 SLP251 =
2018-02-20 01:04 METAR KCEF 200604Z AUTO 19008KT 1 1/2SM R23/3500FT BR OVC002 07/07 A3025 RMK AO2
                 VIS 1 1/2V2 1/4 RAE00 SLP251 =
2018-02-20 01:00 METAR KCEF 200600Z AUTO 19007KT 1 3/4SM R23/4000FT BR OVC002 07/07 A3026 RMK AO2
                 VIS 1 3/4V2 1/2 RAE00 SLP255 =
2018-02-20 00:57 METAR KCEF 200557Z AUTO 19008KT 2SM R23/4500FT -RA BR OVC002 07/07 A3026 RMK AO2
                 VIS 2V2 1/2 SLP255 =
2018-02-20 00:56 METAR KCEF 200556Z AUTO 19008KT 2 1/4SM R23/5000FT -RA BR OVC002 07/07 A3026 RMK
                 AO2 RAB26E43RAB51 SLP255 P0000 60013 T00710070 10072 20055 57014 =
2018-02-20 00:51 METAR KCEF 200551Z AUTO 18008KT 2 1/2SM R23/5000FT -RA BR OVC002 07/07 A3025 RMK
                 AO2 VIS 2 1/2V3 VIS 2 RWY33 RAB26E43RAB51 SLP251 =
2018-02-20 00:49 METAR KCEF 200549Z AUTO 17008KT 2 1/2SM R23/5000FT BR OVC002 07/07 A3025 RMK AO2
                 VIS 2 1/2V3 VIS 2 RWY33 RAB26E43 SLP251 =
2018-02-20 00:43 METAR KCEF 200543Z AUTO 17008KT 2 3/4SM R23/5500FT BR OVC002 07/07 A3025 RMK AO2
                 VIS 2 3/4V5 VIS 1 3/4 RWY05 RAB26E43 SLP251 =
2018-02-20 00:41 METAR KCEF 200541Z AUTO 17009KT 3SM R23/5500FT -RA BR OVC002 07/07 A3026 RMK AO2
                 VIS 2 RWY05 RAB26 SLP255 =
2018-02-20 00:26 METAR KCEF 200526Z AUTO 19006KT 7SM -RA OVC003 07/07 A3027 RMK AO2 RAB26 SLP258
                 =
2018-02-19 23:56 METAR KCEF 200456Z AUTO 18007KT 10SM OVC004 07/07 A3027 RMK AO2 RAE13 SLP258
                 P0001 T00700069 400811097 =
2018-02-19 23:13 METAR KCEF 200413Z AUTO 18009KT 10SM OVC003 07/07 A3029 RMK AO2 RAE13 SLP265 =
2018-02-19 22:56 METAR KCEF 200356Z 17009KT 9SM -RA OVC003 07/07 A3029 RMK AO2A SLP265 P0000
                 T00670066 =
2018-02-19 21:56 METAR KCEF 200256Z 18008KT 6SM -RA BR BKN003 OVC007 06/06 A3030 RMK AO2A SLP269
                 60012 T00600059 58003 =
2018-02-19 21:37 METAR KCEF 200237Z 16006KT 6SM -RA BR BKN003 OVC007 06/06 A3030 RMK AO2A SLP269
                 =
2018-02-19 20:56 METAR KCEF 200156Z 18006KT 2SM R23/6000FT -RA BR BKN003 OVC007 06/06 A3032 RMK
                 AO2A SLP276 T00570056 =
2018-02-19 20:37 METAR KCEF 200137Z 19004KT 2SM R23/6000FT -RA BR BKN003 OVC007 06/06 A3032 RMK
                 AO2A SLP276 =
2018-02-19 20:17 METAR KCEF 200117Z 20005KT 4SM -RA BR OVC004 06/05 A3032 RMK AO2A TWR VIS 2
                 SLP276 =
2018-02-19 20:07 METAR KCEF 200107Z 22004KT 6SM BR OVC004 06/06 A3033 RMK AO2A SLP280 =
2018-02-19 19:56 METAR KCEF 200056Z 21004KT 6SM -RA BR OVC004 06/06 A3032 RMK AO2A SLP276
                 T00580057 =
2018-02-19 19:47 METAR KCEF 200047Z 19006KT 8SM -RA OVC005 06/06 A3031 RMK AO2A SLP273 =
2018-02-19 19:42 METAR KCEF 200042Z 20007KT 9SM OVC005 06/06 A3031 RMK AO2A SLP273 =
2018-02-19 19:27 METAR KCEF 200027Z 19007KT 10SM OVC006 06/05 A3031 RMK AO2A SLP273 =
2018-02-19 18:56 METAR KCEF 192356Z 19007KT 6SM -RA BR BKN007 OVC011 06/05 A3031 RMK AO2A SLP273
                 60006 T00560050 10078 20051 57011 =
2018-02-19 18:51 METAR KCEF 192351Z 19008KT 6SM -RA BR BKN007 OVC013 06/05 A3030 RMK AO2A SLP270
                 =
2018-02-19 17:56 METAR KCEF 192256Z 19007KT 10SM -RA BKN019 OVC031 05/04 A3032 RMK AO2A SLP277
                 T00530043 =
2018-02-19 17:45 METAR KCEF 192245Z 19006KT 10SM -RA BKN019 OVC031 05/04 A3032 RMK AO2A SLP277 =
2018-02-19 16:56 METAR KCEF 192156Z 17005KT 10SM -RA OVC033 05/04 A3032 RMK AO2A SLP277 T00530036
                 =
2018-02-19 16:06 METAR KCEF 192106Z 18008KT 10SM -RA OVC037 06/03 A3034 RMK AO2A SLP283 =
2018-02-19 16:00 METAR KCEF 192100Z 18009KT 10SM OVC038 06/03 A3034 RMK AO2A SLP283 =
2018-02-19 15:56 METAR KCEF 192056Z 19011KT 10SM -RA OVC038 06/03 A3034 RMK AO2A SLP283 P0000
                 60000 T00640025 57016 =
2018-02-19 14:56 METAR KCEF 191956Z COR 19009G18KT 10SM -RA OVC040 07/01 A3036 RMK AO2A SLP290
                 T00730009 COR 1957 =
2018-02-19 13:56 METAR KCEF 191856Z 20010KT 10SM BKN043 OVC070 07/00 A3037 RMK AO2A SLP293
                 T00720002 =
2018-02-19 12:56 METAR KCEF 191756Z 21020KT 10SM FEW048 SCT120 BKN180 BKN230 08/M01 A3039 RMK
                 AO2A PK WND 20027/26 SLP300 4/002 T00791006 10081 21095 57035 =
2018-02-19 11:56 METAR KCEF 191656Z 20018G24KT 10SM FEW030 SCT120 BKN180 BKN230 07/M01 A3042 RMK
                 AO2A SLP310 T00661008 =
2018-02-19 10:56 METAR KCEF 191556Z 20012G19KT 10SM FEW030 SCT180 BKN230 05/M01 A3046 RMK AO2A
                 SLP324 T00521015 =

Support USWX by starting your Amazon purchase here.